EDT,Max TemperatureF,Mean TemperatureF,Min TemperatureF,Max Dew PointF,MeanDew PointF,Min DewpointF,Max Humidity, Mean Humidity, Min Humidity, Max Sea Level PressureIn, Mean Sea Level PressureIn, Min Sea Level PressureIn, Max VisibilityMiles, Mean VisibilityMiles, Min VisibilityMiles, Max Wind SpeedMPH, Mean Wind SpeedMPH, Max Gust SpeedMPH,PrecipitationIn, CloudCover, Events, WindDirDegrees
2012-10-1,68,54,41,57,50,46,100,70,46,29.98,29.92,29.86,10,10,7,8,1,,0.00,1,,219
2012-10-2,62,60,57,59,58,57,100,100,100,30.01,29.98,29.95,10,5,0,6,0,,0.45,8,,42
2012-10-3,73,66,60,73,72,72,100,100,100,30.14,30.06,29.99,8,2,0,4,0,,0.01,7,,230
2012-10-4,73,64,55,73,72,68,100,97,83,30.15,30.12,30.07,10,5,0,8,0,,0.00,3,,218
2012-10-5,77,62,48,64,59,57,100,66,50,30.11,30.05,29.95,10,8,1,8,1,,0.00,0,,208
2012-10-6,69,60,50,66,51,41,100,71,56,30.03,29.91,29.83,10,8,2,12,2,22,0.00,2,,215
2012-10-7,51,46,41,46,42,37,100,82,62,30.13,30.08,30.02,10,9,4,7,1,,0.00,5,,214
2012-10-8,51,44,37,46,41,37,100,85,66,30.29,30.24,30.13,10,10,3,5,0,,0.00,2,,290
2012-10-9,57,52,46,54,49,43,100,91,72,30.23,30.16,30.08,10,8,2,6,0,,0.00,8,,24
2012-10-10,64,57,50,55,49,37,100,78,48,30.08,29.95,29.85,10,7,0,12,2,21,0.00,6,,211
2012-10-11,59,49,39,39,34,32,93,58,36,30.25,30.17,30.03,10,10,10,10,4,16,0.00,0,,221
2012-10-12,57,46,35,39,33,25,100,65,33,30.45,30.22,30.10,10,10,5,15,2,24,0.00,1,,287
2012-10-13,55,40,26,36,27,19,100,62,30,30.52,30.44,30.31,10,10,10,7,1,,0.00,0,,157
2012-10-14,69,56,44,54,47,37,87,69,49,30.29,30.13,29.94,10,10,10,14,3,18,0.00,3,,167
2012-10-15,68,62,55,63,57,46,100,89,72,29.93,29.76,29.68,10,8,0,12,4,,0.34,4,,163
2012-10-16,57,48,37,46,39,36,100,65,48,29.94,29.83,29.74,10,10,10,14,4,22,0.00,2,,251
2012-10-17,62,48,33,45,39,32,100,76,42,30.03,29.98,29.93,10,10,7,7,0,,0.00,0,,170
2012-10-18,68,52,37,57,47,36,100,78,49,30.02,29.97,29.88,10,9,3,13,3,20,0.00,3,,115
2012-10-19,71,65,59,64,62,57,100,92,78,29.88,29.75,29.64,10,8,1,12,6,18,1.56,7,,133
2012-10-20,62,53,44,59,47,39,100,78,45,29.89,29.76,29.67,10,8,0,10,2,,0.00,3,,230
2012-10-21,64,52,41,45,40,37,93,67,37,30.08,30.00,29.90,10,10,10,12,2,18,0.00,0,,227
2012-10-22,66,52,39,45,41,37,100,68,37,30.17,30.11,30.07,10,10,7,9,2,17,0.00,0,,236
2012-10-23,66,54,42,55,49,41,100,83,64,30.15,30.10,30.07,10,10,7,4,0,,0.00,4,,160
2012-10-24,73,62,50,57,54,48,100,83,57,30.19,30.12,30.08,10,8,3,7,1,,0.00,2,,99
2012-10-25,59,57,55,57,56,55,100,96,88,30.26,30.23,30.19,9,3,1,6,0,,0.00,8,,107
2012-10-26,64,60,57,57,57,55,100,88,73,30.24,30.18,30.11,10,8,4,4,0,,0.00,8,,105
2012-10-27,62,58,55,57,54,52,100,84,68,30.10,30.00,29.91,10,10,4,6,1,,0.00,5,,66
2012-10-28,57,55,53,54,49,45,88,81,72,29.91,29.80,29.66,10,10,3,15,5,23,0.02,5,,38
2012-10-29,57,54,50,55,49,45,100,86,72,29.65,29.23,28.49,10,5,1,32,15,52,1.00,8,,14
2012-10-30,,,,,,,,,,,,,,,,,,,,,,
2012-10-31,,,,,,,,,,,,,,,,,,,,,,